sensor_id;sensor_type;location;lat;lon;timestamp;P1;durP1;ratioP1;P2;durP2;ratioP2
45694;SDS011;31408;45.468;9.124;2022-12-29T00:01:24;77.72;;;39.55;;
45694;SDS011;31408;45.468;9.124;2022-12-29T00:03:49;74.68;;;38.85;;
45694;SDS011;31408;45.468;9.124;2022-12-29T00:06:15;70.23;;;38.00;;
45694;SDS011;31408;45.468;9.124;2022-12-29T00:08:40;78.20;;;39.27;;
45694;SDS011;31408;45.468;9.124;2022-12-29T00:11:10;72.60;;;38.17;;
45694;SDS011;31408;45.468;9.124;2022-12-29T00:13:46;71.87;;;39.20;;
45694;SDS011;31408;45.468;9.124;2022-12-29T00:16:31;78.47;;;40.10;;
45694;SDS011;31408;45.468;9.124;2022-12-29T00:18:57;76.10;;;39.72;;
45694;SDS011;31408;45.468;9.124;2022-12-29T00:21:23;72.95;;;38.38;;
45694;SDS011;31408;45.468;9.124;2022-12-29T00:24:15;72.03;;;38.38;;
45694;SDS011;31408;45.468;9.124;2022-12-29T00:27:07;72.63;;;38.22;;
45694;SDS011;31408;45.468;9.124;2022-12-29T00:29:54;73.88;;;40.70;;
45694;SDS011;31408;45.468;9.124;2022-12-29T00:32:38;67.68;;;37.25;;
45694;SDS011;31408;45.468;9.124;2022-12-29T00:37:47;75.80;;;39.28;;
45694;SDS011;31408;45.468;9.124;2022-12-29T00:40:32;68.75;;;37.03;;
45694;SDS011;31408;45.468;9.124;2022-12-29T00:43:16;71.00;;;38.55;;
45694;SDS011;31408;45.468;9.124;2022-12-29T00:46:01;67.93;;;37.22;;
45694;SDS011;31408;45.468;9.124;2022-12-29T00:48:29;68.33;;;36.27;;
45694;SDS011;31408;45.468;9.124;2022-12-29T00:51:13;68.85;;;36.83;;
45694;SDS011;31408;45.468;9.124;2022-12-29T00:53:38;70.00;;;37.50;;
45694;SDS011;31408;45.468;9.124;2022-12-29T00:56:04;71.57;;;37.63;;
45694;SDS011;31408;45.468;9.124;2022-12-29T00:58:30;72.27;;;38.77;;
45694;SDS011;31408;45.468;9.124;2022-12-29T01:01:02;69.32;;;36.88;;
45694;SDS011;31408;45.468;9.124;2022-12-29T01:03:32;73.35;;;38.15;;
45694;SDS011;31408;45.468;9.124;2022-12-29T01:06:06;71.13;;;36.28;;
45694;SDS011;31408;45.468;9.124;2022-12-29T01:08:33;72.63;;;38.65;;
45694;SDS011;31408;45.468;9.124;2022-12-29T01:11:08;69.85;;;37.72;;
45694;SDS011;31408;45.468;9.124;2022-12-29T01:13:36;72.10;;;37.83;;
45694;SDS011;31408;45.468;9.124;2022-12-29T01:16:03;75.47;;;39.40;;
45694;SDS011;31408;45.468;9.124;2022-12-29T01:18:30;76.40;;;38.95;;
45694;SDS011;31408;45.468;9.124;2022-12-29T01:21:01;71.35;;;37.65;;
45694;SDS011;31408;45.468;9.124;2022-12-29T01:23:28;73.72;;;38.30;;
45694;SDS011;31408;45.468;9.124;2022-12-29T01:26:07;72.13;;;37.85;;
45694;SDS011;31408;45.468;9.124;2022-12-29T01:28:34;68.80;;;37.05;;
45694;SDS011;31408;45.468;9.124;2022-12-29T01:31:00;72.50;;;37.80;;
45694;SDS011;31408;45.468;9.124;2022-12-29T01:33:26;70.30;;;37.67;;
45694;SDS011;31408;45.468;9.124;2022-12-29T01:35:51;69.82;;;37.42;;
45694;SDS011;31408;45.468;9.124;2022-12-29T01:38:17;69.22;;;37.38;;
45694;SDS011;31408;45.468;9.124;2022-12-29T01:40:43;70.15;;;36.70;;
45694;SDS011;31408;45.468;9.124;2022-12-29T01:43:11;70.73;;;38.30;;
45694;SDS011;31408;45.468;9.124;2022-12-29T01:45:38;73.28;;;37.35;;
45694;SDS011;31408;45.468;9.124;2022-12-29T01:48:08;74.05;;;38.03;;
45694;SDS011;31408;45.468;9.124;2022-12-29T01:50:36;73.22;;;37.78;;
45694;SDS011;31408;45.468;9.124;2022-12-29T01:55:44;68.73;;;37.20;;
45694;SDS011;31408;45.468;9.124;2022-12-29T01:58:15;65.18;;;35.38;;
45694;SDS011;31408;45.468;9.124;2022-12-29T02:00:43;72.03;;;36.90;;
45694;SDS011;31408;45.468;9.124;2022-12-29T02:03:09;75.30;;;38.03;;
45694;SDS011;31408;45.468;9.124;2022-12-29T02:08:01;69.17;;;38.53;;
45694;SDS011;31408;45.468;9.124;2022-12-29T02:10:27;74.30;;;38.47;;
45694;SDS011;31408;45.468;9.124;2022-12-29T02:12:54;72.05;;;37.70;;
45694;SDS011;31408;45.468;9.124;2022-12-29T02:15:24;70.07;;;37.00;;
45694;SDS011;31408;45.468;9.124;2022-12-29T02:18:22;66.93;;;37.30;;
45694;SDS011;31408;45.468;9.124;2022-12-29T02:26:20;73.80;;;38.57;;
45694;SDS011;31408;45.468;9.124;2022-12-29T02:28:59;73.38;;;38.10;;
45694;SDS011;31408;45.468;9.124;2022-12-29T02:32:05;68.25;;;35.50;;
45694;SDS011;31408;45.468;9.124;2022-12-29T02:34:41;66.75;;;36.78;;
45694;SDS011;31408;45.468;9.124;2022-12-29T02:38:00;70.30;;;37.72;;
45694;SDS011;31408;45.468;9.124;2022-12-29T02:43:39;71.72;;;38.47;;
45694;SDS011;31408;45.468;9.124;2022-12-29T02:45:58;73.18;;;36.75;;
45694;SDS011;31408;45.468;9.124;2022-12-29T02:48:38;71.63;;;36.53;;
45694;SDS011;31408;45.468;9.124;2022-12-29T02:51:09;68.43;;;36.28;;
45694;SDS011;31408;45.468;9.124;2022-12-29T02:53:37;67.00;;;35.08;;
45694;SDS011;31408;45.468;9.124;2022-12-29T02:56:21;68.07;;;35.72;;
45694;SDS011;31408;45.468;9.124;2022-12-29T02:58:47;75.57;;;36.63;;
45694;SDS011;31408;45.468;9.124;2022-12-29T03:01:20;68.87;;;34.63;;
45694;SDS011;31408;45.468;9.124;2022-12-29T03:11:59;68.50;;;36.20;;
45694;SDS011;31408;45.468;9.124;2022-12-29T03:14:39;66.45;;;34.50;;
45694;SDS011;31408;45.468;9.124;2022-12-29T03:17:43;63.97;;;35.08;;
45694;SDS011;31408;45.468;9.124;2022-12-29T03:20:23;69.72;;;36.72;;
45694;SDS011;31408;45.468;9.124;2022-12-29T03:22:54;66.57;;;33.50;;
45694;SDS011;31408;45.468;9.124;2022-12-29T03:25:30;65.57;;;34.90;;
45694;SDS011;31408;45.468;9.124;2022-12-29T03:28:01;69.60;;;35.67;;
45694;SDS011;31408;45.468;9.124;2022-12-29T03:30:34;63.67;;;34.92;;
45694;SDS011;31408;45.468;9.124;2022-12-29T03:33:02;59.75;;;32.65;;
45694;SDS011;31408;45.468;9.124;2022-12-29T03:35:32;66.13;;;34.88;;
45694;SDS011;31408;45.468;9.124;2022-12-29T03:40:42;65.10;;;35.00;;
45694;SDS011;31408;45.468;9.124;2022-12-29T03:43:09;64.30;;;35.10;;
45694;SDS011;31408;45.468;9.124;2022-12-29T03:45:36;64.00;;;35.05;;
45694;SDS011;31408;45.468;9.124;2022-12-29T03:48:01;66.07;;;35.07;;
45694;SDS011;31408;45.468;9.124;2022-12-29T03:50:28;65.82;;;34.90;;
45694;SDS011;31408;45.468;9.124;2022-12-29T03:52:53;61.27;;;35.03;;
45694;SDS011;31408;45.468;9.124;2022-12-29T03:55:18;64.20;;;33.33;;
45694;SDS011;31408;45.468;9.124;2022-12-29T03:57:44;61.75;;;35.08;;
45694;SDS011;31408;45.468;9.124;2022-12-29T04:00:14;64.90;;;35.05;;
45694;SDS011;31408;45.468;9.124;2022-12-29T04:02:40;61.53;;;34.27;;
45694;SDS011;31408;45.468;9.124;2022-12-29T04:05:07;60.67;;;34.33;;
45694;SDS011;31408;45.468;9.124;2022-12-29T04:07:33;63.20;;;33.95;;
45694;SDS011;31408;45.468;9.124;2022-12-29T04:10:01;61.17;;;33.30;;
45694;SDS011;31408;45.468;9.124;2022-12-29T04:12:27;64.33;;;34.10;;
45694;SDS011;31408;45.468;9.124;2022-12-29T04:14:52;62.13;;;33.77;;
45694;SDS011;31408;45.468;9.124;2022-12-29T04:17:18;64.23;;;35.07;;
45694;SDS011;31408;45.468;9.124;2022-12-29T04:19:45;62.08;;;34.78;;
45694;SDS011;31408;45.468;9.124;2022-12-29T04:22:11;60.87;;;34.03;;
45694;SDS011;31408;45.468;9.124;2022-12-29T04:24:37;65.88;;;34.80;;
45694;SDS011;31408;45.468;9.124;2022-12-29T04:27:02;61.72;;;35.25;;
45694;SDS011;31408;45.468;9.124;2022-12-29T04:29:42;66.00;;;35.20;;
45694;SDS011;31408;45.468;9.124;2022-12-29T04:32:32;62.95;;;34.60;;
45694;SDS011;31408;45.468;9.124;2022-12-29T04:34:57;63.33;;;34.10;;
45694;SDS011;31408;45.468;9.124;2022-12-29T04:37:23;62.37;;;34.93;;
45694;SDS011;31408;45.468;9.124;2022-12-29T04:39:48;65.87;;;34.90;;
45694;SDS011;31408;45.468;9.124;2022-12-29T04:42:14;62.00;;;34.67;;
45694;SDS011;31408;45.468;9.124;2022-12-29T04:44:40;66.68;;;34.88;;
45694;SDS011;31408;45.468;9.124;2022-12-29T04:47:11;65.22;;;35.83;;
45694;SDS011;31408;45.468;9.124;2022-12-29T04:49:44;66.75;;;36.90;;
45694;SDS011;31408;45.468;9.124;2022-12-29T04:52:33;66.38;;;36.53;;
45694;SDS011;31408;45.468;9.124;2022-12-29T04:54:59;67.40;;;36.93;;
45694;SDS011;31408;45.468;9.124;2022-12-29T04:57:25;67.53;;;35.63;;
45694;SDS011;31408;45.468;9.124;2022-12-29T04:59:54;67.63;;;34.17;;
45694;SDS011;31408;45.468;9.124;2022-12-29T05:02:20;65.97;;;35.70;;
45694;SDS011;31408;45.468;9.124;2022-12-29T05:04:48;62.47;;;34.45;;
45694;SDS011;31408;45.468;9.124;2022-12-29T05:07:15;66.35;;;35.38;;
45694;SDS011;31408;45.468;9.124;2022-12-29T05:09:42;65.93;;;35.38;;
45694;SDS011;31408;45.468;9.124;2022-12-29T05:12:07;68.03;;;34.97;;
45694;SDS011;31408;45.468;9.124;2022-12-29T05:14:36;64.03;;;35.37;;
45694;SDS011;31408;45.468;9.124;2022-12-29T05:17:02;69.47;;;36.13;;
45694;SDS011;31408;45.468;9.124;2022-12-29T05:19:27;69.17;;;35.60;;
45694;SDS011;31408;45.468;9.124;2022-12-29T05:21:53;61.30;;;33.37;;
45694;SDS011;31408;45.468;9.124;2022-12-29T05:24:19;70.35;;;34.85;;
45694;SDS011;31408;45.468;9.124;2022-12-29T05:26:45;62.75;;;34.15;;
45694;SDS011;31408;45.468;9.124;2022-12-29T05:29:33;63.72;;;35.13;;
45694;SDS011;31408;45.468;9.124;2022-12-29T05:31:59;66.80;;;34.60;;
45694;SDS011;31408;45.468;9.124;2022-12-29T05:34:25;63.03;;;33.65;;
45694;SDS011;31408;45.468;9.124;2022-12-29T05:36:51;63.63;;;34.78;;
45694;SDS011;31408;45.468;9.124;2022-12-29T05:39:17;60.80;;;32.28;;
45694;SDS011;31408;45.468;9.124;2022-12-29T05:41:46;62.58;;;33.67;;
45694;SDS011;31408;45.468;9.124;2022-12-29T05:44:14;53.93;;;30.90;;
45694;SDS011;31408;45.468;9.124;2022-12-29T05:47:03;57.95;;;34.85;;
45694;SDS011;31408;45.468;9.124;2022-12-29T05:49:50;62.45;;;33.50;;
45694;SDS011;31408;45.468;9.124;2022-12-29T05:52:37;65.30;;;35.47;;
45694;SDS011;31408;45.468;9.124;2022-12-29T05:55:03;61.90;;;33.78;;
45694;SDS011;31408;45.468;9.124;2022-12-29T05:57:30;61.20;;;32.92;;
45694;SDS011;31408;45.468;9.124;2022-12-29T06:00:06;66.18;;;35.85;;
45694;SDS011;31408;45.468;9.124;2022-12-29T06:02:40;63.45;;;34.38;;
45694;SDS011;31408;45.468;9.124;2022-12-29T06:05:06;62.05;;;32.47;;
45694;SDS011;31408;45.468;9.124;2022-12-29T06:07:33;69.30;;;36.10;;
45694;SDS011;31408;45.468;9.124;2022-12-29T06:09:59;63.40;;;34.33;;
45694;SDS011;31408;45.468;9.124;2022-12-29T06:12:24;62.93;;;33.77;;
45694;SDS011;31408;45.468;9.124;2022-12-29T06:14:52;60.92;;;32.65;;
45694;SDS011;31408;45.468;9.124;2022-12-29T06:17:18;65.27;;;33.90;;
45694;SDS011;31408;45.468;9.124;2022-12-29T06:19:43;62.43;;;33.00;;
45694;SDS011;31408;45.468;9.124;2022-12-29T06:22:09;58.67;;;32.37;;
45694;SDS011;31408;45.468;9.124;2022-12-29T06:24:38;57.17;;;33.08;;
45694;SDS011;31408;45.468;9.124;2022-12-29T06:27:04;61.00;;;32.35;;
45694;SDS011;31408;45.468;9.124;2022-12-29T06:29:30;59.72;;;31.67;;
45694;SDS011;31408;45.468;9.124;2022-12-29T06:31:56;56.97;;;30.85;;
45694;SDS011;31408;45.468;9.124;2022-12-29T06:34:23;58.35;;;32.80;;
45694;SDS011;31408;45.468;9.124;2022-12-29T06:36:49;53.65;;;31.17;;
45694;SDS011;31408;45.468;9.124;2022-12-29T06:39:15;59.63;;;31.27;;
45694;SDS011;31408;45.468;9.124;2022-12-29T06:41:47;57.35;;;31.58;;
45694;SDS011;31408;45.468;9.124;2022-12-29T06:44:28;61.70;;;31.30;;
45694;SDS011;31408;45.468;9.124;2022-12-29T06:46:59;61.83;;;33.47;;
45694;SDS011;31408;45.468;9.124;2022-12-29T06:49:25;56.77;;;31.13;;
45694;SDS011;31408;45.468;9.124;2022-12-29T06:51:50;57.20;;;30.77;;
45694;SDS011;31408;45.468;9.124;2022-12-29T06:54:16;61.42;;;32.00;;
45694;SDS011;31408;45.468;9.124;2022-12-29T06:56:41;56.67;;;31.95;;
45694;SDS011;31408;45.468;9.124;2022-12-29T06:59:07;56.93;;;31.63;;
45694;SDS011;31408;45.468;9.124;2022-12-29T07:01:32;60.93;;;34.17;;
45694;SDS011;31408;45.468;9.124;2022-12-29T07:03:58;58.93;;;33.07;;
45694;SDS011;31408;45.468;9.124;2022-12-29T07:06:23;59.95;;;34.45;;
45694;SDS011;31408;45.468;9.124;2022-12-29T07:08:48;58.37;;;32.13;;
45694;SDS011;31408;45.468;9.124;2022-12-29T07:11:14;57.60;;;31.23;;
45694;SDS011;31408;45.468;9.124;2022-12-29T07:13:40;62.93;;;32.67;;
45694;SDS011;31408;45.468;9.124;2022-12-29T07:16:09;61.63;;;32.47;;
45694;SDS011;31408;45.468;9.124;2022-12-29T07:18:35;60.53;;;31.48;;
45694;SDS011;31408;45.468;9.124;2022-12-29T07:21:00;60.33;;;30.20;;
45694;SDS011;31408;45.468;9.124;2022-12-29T07:23:26;57.80;;;32.03;;
45694;SDS011;31408;45.468;9.124;2022-12-29T07:26:02;57.78;;;32.28;;
45694;SDS011;31408;45.468;9.124;2022-12-29T07:28:29;57.50;;;31.05;;
45694;SDS011;31408;45.468;9.124;2022-12-29T07:30:55;60.10;;;31.73;;
45694;SDS011;31408;45.468;9.124;2022-12-29T07:33:20;63.30;;;32.33;;
45694;SDS011;31408;45.468;9.124;2022-12-29T07:35:46;64.87;;;33.87;;
45694;SDS011;31408;45.468;9.124;2022-12-29T07:38:12;56.13;;;31.90;;
45694;SDS011;31408;45.468;9.124;2022-12-29T07:40:37;62.07;;;33.07;;
45694;SDS011;31408;45.468;9.124;2022-12-29T07:43:02;56.10;;;31.20;;
45694;SDS011;31408;45.468;9.124;2022-12-29T07:45:35;55.33;;;30.05;;
45694;SDS011;31408;45.468;9.124;2022-12-29T07:48:09;58.33;;;30.77;;
45694;SDS011;31408;45.468;9.124;2022-12-29T07:50:35;60.20;;;32.50;;
45694;SDS011;31408;45.468;9.124;2022-12-29T07:53:01;57.95;;;33.13;;
45694;SDS011;31408;45.468;9.124;2022-12-29T07:55:27;58.97;;;31.33;;
45694;SDS011;31408;45.468;9.124;2022-12-29T07:57:53;61.10;;;32.47;;
45694;SDS011;31408;45.468;9.124;2022-12-29T08:00:19;60.08;;;32.30;;
45694;SDS011;31408;45.468;9.124;2022-12-29T08:02:44;60.05;;;32.75;;
45694;SDS011;31408;45.468;9.124;2022-12-29T08:05:10;58.27;;;31.10;;
45694;SDS011;31408;45.468;9.124;2022-12-29T08:07:35;60.13;;;33.20;;
45694;SDS011;31408;45.468;9.124;2022-12-29T08:10:01;57.05;;;32.28;;
45694;SDS011;31408;45.468;9.124;2022-12-29T08:12:26;59.73;;;31.97;;
45694;SDS011;31408;45.468;9.124;2022-12-29T08:14:52;58.83;;;33.10;;
45694;SDS011;31408;45.468;9.124;2022-12-29T08:17:17;59.37;;;33.30;;
45694;SDS011;31408;45.468;9.124;2022-12-29T08:19:43;62.53;;;34.63;;
45694;SDS011;31408;45.468;9.124;2022-12-29T08:22:09;61.72;;;33.70;;
45694;SDS011;31408;45.468;9.124;2022-12-29T08:24:34;62.17;;;34.40;;
45694;SDS011;31408;45.468;9.124;2022-12-29T08:27:00;60.00;;;34.40;;
45694;SDS011;31408;45.468;9.124;2022-12-29T08:29:26;57.42;;;35.10;;
45694;SDS011;31408;45.468;9.124;2022-12-29T08:31:51;57.55;;;33.55;;
45694;SDS011;31408;45.468;9.124;2022-12-29T08:34:17;63.03;;;34.17;;
45694;SDS011;31408;45.468;9.124;2022-12-29T08:36:42;62.70;;;33.20;;
45694;SDS011;31408;45.468;9.124;2022-12-29T08:39:08;63.38;;;35.90;;
45694;SDS011;31408;45.468;9.124;2022-12-29T08:41:33;62.45;;;35.10;;
45694;SDS011;31408;45.468;9.124;2022-12-29T08:43:59;60.83;;;34.73;;
45694;SDS011;31408;45.468;9.124;2022-12-29T08:46:24;62.47;;;36.10;;
45694;SDS011;31408;45.468;9.124;2022-12-29T08:48:49;65.07;;;35.47;;
45694;SDS011;31408;45.468;9.124;2022-12-29T08:51:15;59.67;;;34.97;;
45694;SDS011;31408;45.468;9.124;2022-12-29T08:53:42;55.35;;;33.00;;
45694;SDS011;31408;45.468;9.124;2022-12-29T08:56:12;65.93;;;34.87;;
45694;SDS011;31408;45.468;9.124;2022-12-29T08:58:47;63.27;;;34.27;;
45694;SDS011;31408;45.468;9.124;2022-12-29T09:01:12;62.07;;;35.20;;
45694;SDS011;31408;45.468;9.124;2022-12-29T09:03:38;61.90;;;34.13;;
45694;SDS011;31408;45.468;9.124;2022-12-29T09:06:03;58.30;;;32.33;;
45694;SDS011;31408;45.468;9.124;2022-12-29T09:08:29;51.63;;;30.45;;
45694;SDS011;31408;45.468;9.124;2022-12-29T09:10:54;60.47;;;32.22;;
45694;SDS011;31408;45.468;9.124;2022-12-29T09:13:20;60.43;;;33.23;;
45694;SDS011;31408;45.468;9.124;2022-12-29T09:15:45;57.93;;;31.30;;
45694;SDS011;31408;45.468;9.124;2022-12-29T09:18:11;59.58;;;32.83;;
45694;SDS011;31408;45.468;9.124;2022-12-29T09:20:36;60.45;;;34.45;;
45694;SDS011;31408;45.468;9.124;2022-12-29T09:23:02;59.35;;;32.67;;
45694;SDS011;31408;45.468;9.124;2022-12-29T09:25:28;58.97;;;33.35;;
45694;SDS011;31408;45.468;9.124;2022-12-29T09:27:54;53.73;;;30.00;;
45694;SDS011;31408;45.468;9.124;2022-12-29T09:30:20;53.17;;;30.87;;
45694;SDS011;31408;45.468;9.124;2022-12-29T09:32:47;56.42;;;31.52;;
45694;SDS011;31408;45.468;9.124;2022-12-29T09:35:13;53.47;;;29.77;;
45694;SDS011;31408;45.468;9.124;2022-12-29T09:37:40;56.05;;;32.53;;
45694;SDS011;31408;45.468;9.124;2022-12-29T09:40:06;57.90;;;31.23;;
45694;SDS011;31408;45.468;9.124;2022-12-29T09:42:39;55.03;;;31.27;;
45694;SDS011;31408;45.468;9.124;2022-12-29T09:47:43;60.25;;;33.80;;
45694;SDS011;31408;45.468;9.124;2022-12-29T09:52:47;58.30;;;32.80;;
45694;SDS011;31408;45.468;9.124;2022-12-29T09:55:19;56.55;;;32.70;;
45694;SDS011;31408;45.468;9.124;2022-12-29T09:57:53;60.10;;;33.83;;
45694;SDS011;31408;45.468;9.124;2022-12-29T10:00:22;60.00;;;31.95;;
45694;SDS011;31408;45.468;9.124;2022-12-29T10:02:50;55.00;;;31.48;;
45694;SDS011;31408;45.468;9.124;2022-12-29T10:05:39;55.35;;;32.42;;
45694;SDS011;31408;45.468;9.124;2022-12-29T10:11:05;55.92;;;33.58;;
45694;SDS011;31408;45.468;9.124;2022-12-29T10:16:35;55.50;;;33.13;;
45694;SDS011;31408;45.468;9.124;2022-12-29T10:19:09;62.70;;;34.65;;
45694;SDS011;31408;45.468;9.124;2022-12-29T10:21:43;58.53;;;32.45;;
45694;SDS011;31408;45.468;9.124;2022-12-29T10:24:17;56.88;;;32.88;;
45694;SDS011;31408;45.468;9.124;2022-12-29T10:26:44;58.20;;;33.25;;
45694;SDS011;31408;45.468;9.124;2022-12-29T10:29:13;60.30;;;33.25;;
45694;SDS011;31408;45.468;9.124;2022-12-29T10:31:46;62.03;;;34.15;;
45694;SDS011;31408;45.468;9.124;2022-12-29T10:34:17;60.90;;;34.28;;
45694;SDS011;31408;45.468;9.124;2022-12-29T10:36:47;60.05;;;33.50;;
45694;SDS011;31408;45.468;9.124;2022-12-29T10:39:59;60.17;;;33.57;;
45694;SDS011;31408;45.468;9.124;2022-12-29T10:42:13;59.72;;;33.72;;
45694;SDS011;31408;45.468;9.124;2022-12-29T10:44:44;58.67;;;32.67;;
45694;SDS011;31408;45.468;9.124;2022-12-29T10:47:12;60.33;;;34.47;;
45694;SDS011;31408;45.468;9.124;2022-12-29T10:49:40;60.90;;;34.67;;
45694;SDS011;31408;45.468;9.124;2022-12-29T10:52:08;58.80;;;33.95;;
45694;SDS011;31408;45.468;9.124;2022-12-29T10:54:38;63.75;;;35.40;;
45694;SDS011;31408;45.468;9.124;2022-12-29T10:59:57;62.20;;;35.30;;
45694;SDS011;31408;45.468;9.124;2022-12-29T11:02:26;61.20;;;35.10;;
45694;SDS011;31408;45.468;9.124;2022-12-29T11:05:00;57.47;;;33.63;;
45694;SDS011;31408;45.468;9.124;2022-12-29T11:07:28;61.03;;;34.30;;
45694;SDS011;31408;45.468;9.124;2022-12-29T11:09:55;57.28;;;35.03;;
45694;SDS011;31408;45.468;9.124;2022-12-29T11:12:40;56.38;;;31.77;;
45694;SDS011;31408;45.468;9.124;2022-12-29T11:17:51;56.83;;;33.05;;
45694;SDS011;31408;45.468;9.124;2022-12-29T11:23:04;60.67;;;34.85;;
45694;SDS011;31408;45.468;9.124;2022-12-29T11:25:45;55.78;;;32.85;;
45694;SDS011;31408;45.468;9.124;2022-12-29T11:28:15;53.55;;;32.33;;
45694;SDS011;31408;45.468;9.124;2022-12-29T11:30:41;61.55;;;35.05;;
45694;SDS011;31408;45.468;9.124;2022-12-29T11:33:07;61.15;;;36.42;;
45694;SDS011;31408;45.468;9.124;2022-12-29T11:35:40;61.25;;;36.47;;
45694;SDS011;31408;45.468;9.124;2022-12-29T11:38:18;60.13;;;33.33;;
45694;SDS011;31408;45.468;9.124;2022-12-29T11:40:46;53.20;;;32.30;;
45694;SDS011;31408;45.468;9.124;2022-12-29T11:43:18;57.20;;;34.33;;
45694;SDS011;31408;45.468;9.124;2022-12-29T11:45:59;56.42;;;33.13;;
45694;SDS011;31408;45.468;9.124;2022-12-29T11:48:40;57.83;;;33.45;;
45694;SDS011;31408;45.468;9.124;2022-12-29T11:51:07;59.60;;;32.97;;
45694;SDS011;31408;45.468;9.124;2022-12-29T11:53:43;56.17;;;33.78;;
45694;SDS011;31408;45.468;9.124;2022-12-29T11:56:20;56.38;;;34.25;;
45694;SDS011;31408;45.468;9.124;2022-12-29T11:58:47;53.38;;;33.88;;
45694;SDS011;31408;45.468;9.124;2022-12-29T12:04:12;55.85;;;32.58;;
45694;SDS011;31408;45.468;9.124;2022-12-29T12:06:44;53.15;;;31.88;;
45694;SDS011;31408;45.468;9.124;2022-12-29T12:09:19;53.97;;;32.30;;
45694;SDS011;31408;45.468;9.124;2022-12-29T12:11:48;52.13;;;31.25;;
45694;SDS011;31408;45.468;9.124;2022-12-29T12:17:19;53.55;;;31.05;;
45694;SDS011;31408;45.468;9.124;2022-12-29T12:22:36;53.83;;;32.55;;
45694;SDS011;31408;45.468;9.124;2022-12-29T12:25:17;49.72;;;30.38;;
45694;SDS011;31408;45.468;9.124;2022-12-29T12:27:53;51.50;;;31.45;;
45694;SDS011;31408;45.468;9.124;2022-12-29T12:30:24;51.03;;;29.70;;
45694;SDS011;31408;45.468;9.124;2022-12-29T12:38:39;49.65;;;29.50;;
45694;SDS011;31408;45.468;9.124;2022-12-29T12:41:11;49.38;;;30.40;;
45694;SDS011;31408;45.468;9.124;2022-12-29T12:43:39;54.20;;;30.55;;
45694;SDS011;31408;45.468;9.124;2022-12-29T12:46:19;52.93;;;31.53;;
45694;SDS011;31408;45.468;9.124;2022-12-29T12:54:45;56.70;;;31.38;;
45694;SDS011;31408;45.468;9.124;2022-12-29T13:00:02;50.70;;;29.02;;
45694;SDS011;31408;45.468;9.124;2022-12-29T13:02:49;52.13;;;33.00;;
45694;SDS011;31408;45.468;9.124;2022-12-29T13:10:54;53.47;;;31.52;;
45694;SDS011;31408;45.468;9.124;2022-12-29T13:13:29;55.47;;;32.10;;
45694;SDS011;31408;45.468;9.124;2022-12-29T13:19:10;52.97;;;31.67;;
45694;SDS011;31408;45.468;9.124;2022-12-29T13:27:19;55.53;;;32.80;;
45694;SDS011;31408;45.468;9.124;2022-12-29T13:30:09;52.67;;;33.42;;
45694;SDS011;31408;45.468;9.124;2022-12-29T13:38:07;58.38;;;33.83;;
45694;SDS011;31408;45.468;9.124;2022-12-29T13:40:41;56.95;;;33.05;;
45694;SDS011;31408;45.468;9.124;2022-12-29T13:43:10;54.67;;;31.27;;
45694;SDS011;31408;45.468;9.124;2022-12-29T13:45:36;55.55;;;33.58;;
45694;SDS011;31408;45.468;9.124;2022-12-29T13:48:05;53.58;;;32.13;;
45694;SDS011;31408;45.468;9.124;2022-12-29T13:50:35;53.60;;;32.65;;
45694;SDS011;31408;45.468;9.124;2022-12-29T13:56:38;58.03;;;33.58;;
45694;SDS011;31408;45.468;9.124;2022-12-29T14:05:15;52.95;;;31.40;;
45694;SDS011;31408;45.468;9.124;2022-12-29T14:07:58;52.80;;;32.13;;
45694;SDS011;31408;45.468;9.124;2022-12-29T14:13:14;56.40;;;32.38;;
45694;SDS011;31408;45.468;9.124;2022-12-29T14:15:53;53.10;;;31.63;;
45694;SDS011;31408;45.468;9.124;2022-12-29T14:18:24;54.70;;;33.50;;
45694;SDS011;31408;45.468;9.124;2022-12-29T14:20:55;53.50;;;31.83;;
45694;SDS011;31408;45.468;9.124;2022-12-29T14:28:34;52.47;;;31.60;;
45694;SDS011;31408;45.468;9.124;2022-12-29T14:31:04;54.45;;;32.00;;
45694;SDS011;31408;45.468;9.124;2022-12-29T14:33:31;52.42;;;29.85;;
45694;SDS011;31408;45.468;9.124;2022-12-29T14:36:19;53.00;;;33.13;;
45694;SDS011;31408;45.468;9.124;2022-12-29T14:38:48;53.10;;;32.83;;
45694;SDS011;31408;45.468;9.124;2022-12-29T14:41:56;57.03;;;33.75;;
45694;SDS011;31408;45.468;9.124;2022-12-29T14:44:18;57.00;;;33.90;;
45694;SDS011;31408;45.468;9.124;2022-12-29T14:46:49;54.75;;;32.35;;
45694;SDS011;31408;45.468;9.124;2022-12-29T14:49:22;50.90;;;32.47;;
45694;SDS011;31408;45.468;9.124;2022-12-29T14:51:54;52.08;;;31.73;;
45694;SDS011;31408;45.468;9.124;2022-12-29T14:54:40;51.17;;;31.08;;
45694;SDS011;31408;45.468;9.124;2022-12-29T14:57:29;49.38;;;30.08;;
45694;SDS011;31408;45.468;9.124;2022-12-29T14:59:57;48.55;;;29.55;;
45694;SDS011;31408;45.468;9.124;2022-12-29T15:02:38;50.20;;;30.05;;
45694;SDS011;31408;45.468;9.124;2022-12-29T15:05:10;50.77;;;28.87;;
45694;SDS011;31408;45.468;9.124;2022-12-29T15:07:47;49.78;;;29.60;;
45694;SDS011;31408;45.468;9.124;2022-12-29T15:10:13;48.35;;;27.92;;
45694;SDS011;31408;45.468;9.124;2022-12-29T15:12:41;49.25;;;28.27;;
45694;SDS011;31408;45.468;9.124;2022-12-29T15:15:17;45.33;;;27.33;;
45694;SDS011;31408;45.468;9.124;2022-12-29T15:17:45;44.77;;;27.37;;
45694;SDS011;31408;45.468;9.124;2022-12-29T15:20:30;51.83;;;28.53;;
45694;SDS011;31408;45.468;9.124;2022-12-29T15:25:29;45.95;;;27.63;;
45694;SDS011;31408;45.468;9.124;2022-12-29T15:28:00;46.88;;;27.15;;
45694;SDS011;31408;45.468;9.124;2022-12-29T15:30:32;49.15;;;26.70;;
45694;SDS011;31408;45.468;9.124;2022-12-29T15:32:58;44.00;;;26.30;;
45694;SDS011;31408;45.468;9.124;2022-12-29T15:35:33;43.70;;;26.95;;
45694;SDS011;31408;45.468;9.124;2022-12-29T15:38:01;43.42;;;25.60;;
45694;SDS011;31408;45.468;9.124;2022-12-29T15:40:38;46.65;;;25.23;;
45694;SDS011;31408;45.468;9.124;2022-12-29T15:45:32;42.93;;;25.53;;
45694;SDS011;31408;45.468;9.124;2022-12-29T15:47:58;45.25;;;25.83;;
45694;SDS011;31408;45.468;9.124;2022-12-29T15:52:54;46.30;;;26.27;;
45694;SDS011;31408;45.468;9.124;2022-12-29T15:55:31;45.22;;;26.02;;
45694;SDS011;31408;45.468;9.124;2022-12-29T15:57:59;44.35;;;25.55;;
45694;SDS011;31408;45.468;9.124;2022-12-29T16:00:31;45.92;;;27.30;;
45694;SDS011;31408;45.468;9.124;2022-12-29T16:02:59;46.50;;;26.92;;
45694;SDS011;31408;45.468;9.124;2022-12-29T16:05:36;46.15;;;25.75;;
45694;SDS011;31408;45.468;9.124;2022-12-29T16:08:02;42.67;;;25.33;;
45694;SDS011;31408;45.468;9.124;2022-12-29T16:10:39;48.20;;;26.90;;
45694;SDS011;31408;45.468;9.124;2022-12-29T16:13:18;45.28;;;26.30;;
45694;SDS011;31408;45.468;9.124;2022-12-29T16:15:47;44.40;;;27.55;;
45694;SDS011;31408;45.468;9.124;2022-12-29T16:18:33;46.80;;;25.45;;
45694;SDS011;31408;45.468;9.124;2022-12-29T16:21:00;47.03;;;27.20;;
45694;SDS011;31408;45.468;9.124;2022-12-29T16:23:26;45.85;;;26.77;;
45694;SDS011;31408;45.468;9.124;2022-12-29T16:25:54;48.08;;;27.80;;
45694;SDS011;31408;45.468;9.124;2022-12-29T16:28:21;43.92;;;25.92;;
45694;SDS011;31408;45.468;9.124;2022-12-29T16:31:17;45.53;;;25.58;;
45694;SDS011;31408;45.468;9.124;2022-12-29T16:33:47;44.30;;;25.45;;
45694;SDS011;31408;45.468;9.124;2022-12-29T16:39:28;45.03;;;26.55;;